Terminal Aerodrome Forecast
Issued by NWS

Home | Current Version | Previous Version | Text Only | Print | Product List | Glossary On
Versions: 1 2 3 4 5 6 7 8 9 10 11 12 13 14 15 16 17 18 19 20 21 22 23 24 25 26 27
933
FTUS41 KBUF 251901 AAA
TAFJHW
TAF AMD
KJHW 251901Z 2519/2618 28016G26KT P6SM VCTS BKN050CB
     FM252200 26009KT P6SM SCT050
     FM260300 24007KT P6SM VCSH BKN040
     FM261400 24011KT 6SM -SHRA OVC025
      AMD LTD TO CLD VIS AND WIND=

USA.gov is the U.S. government's official web portal to all federal, state and local government web resources and services.